Time;durP1;ratioP1;P1;durP2;ratioP2;P2;SDS_P1;SDS_P2;PMS_P1;PMS_P2;Temp;Humidity;BMP_temperature;BMP_pressure;BME280_temperature;BME280_humidity;BME280_pressure;Samples;Min_cycle;Max_cycle;Signal;HPM_P1;HPM_P2
2023/04/12 00:00:49;;;;;;;7.72;1.73;;;7.60;99.90;;;;;;12526012;28;20069;-80
2023/04/12 00:06:53;;;;;;;12.65;2.10;;;7.60;99.90;;;;;;12518874;28;20084;-80
2023/04/12 00:12:55;;;;;;;6.03;1.58;;;7.60;99.90;;;;;;12506872;28;20053;-80
2023/04/12 00:18:57;;;;;;;6.60;1.50;;;7.50;99.90;;;;;;12493148;28;20080;-81
2023/04/12 00:25:00;;;;;;;6.18;1.83;;;7.60;99.90;;;;;;12518632;28;20065;-80
2023/04/12 00:31:03;;;;;;;5.88;1.40;;;7.60;99.90;;;;;;12518407;28;20037;-82
2023/04/12 00:37:04;;;;;;;7.22;1.48;;;7.60;99.90;;;;;;12527511;28;20045;-80
2023/04/12 00:43:07;;;;;;;6.20;1.42;;;7.70;99.90;;;;;;12523360;28;20073;-80
2023/04/12 00:49:12;;;;;;;6.43;1.63;;;7.70;99.90;;;;;;12521018;28;20065;-80
2023/04/12 00:55:14;;;;;;;6.32;1.27;;;7.70;99.90;;;;;;12505115;28;20071;-81
2023/04/12 01:01:18;;;;;;;8.13;1.30;;;7.70;99.90;;;;;;12528576;28;20058;-80
2023/04/12 01:07:29;;;;;;;6.00;1.85;;;7.80;99.90;;;;;;12539725;28;20062;-80
2023/04/12 01:14:24;;;;;;;4.50;1.30;;;7.90;99.90;;;;;;12534158;28;20046;-81
2023/04/12 01:20:32;;;;;;;5.45;1.38;;;8.00;99.90;;;;;;12527377;28;20058;-82
2023/04/12 01:26:40;;;;;;;10.65;1.50;;;8.00;99.90;;;;;;12520042;28;20432;-80
2023/04/12 01:32:50;;;;;;;5.75;1.38;;;8.20;99.90;;;;;;12537851;28;20175;-81
2023/04/12 01:38:53;;;;;;;4.50;1.10;;;8.20;99.90;;;;;;12544080;28;20060;-80
2023/04/12 01:44:55;;;;;;;6.80;1.40;;;8.10;99.90;;;;;;12540502;28;20037;-81
2023/04/12 01:51:17;;;;;;;7.55;1.50;;;8.10;99.90;;;;;;12516965;28;20050;-82
2023/04/12 01:57:20;;;;;;;5.93;1.35;;;8.00;99.90;;;;;;12535764;28;20056;-81
2023/04/12 02:03:23;;;;;;;5.65;1.48;;;8.00;99.90;;;;;;12527752;28;20104;-80
2023/04/12 02:09:27;;;;;;;5.93;1.25;;;8.00;99.90;;;;;;12537656;28;20097;-81
2023/04/12 02:15:29;;;;;;;7.28;1.33;;;8.10;99.90;;;;;;12532328;28;20161;-81
2023/04/12 02:21:40;;;;;;;6.78;1.30;;;8.10;99.90;;;;;;12535818;28;20049;-81
2023/04/12 02:27:41;;;;;;;4.25;0.88;;;8.00;99.90;;;;;;12533238;28;20080;-82
2023/04/12 02:33:47;;;;;;;7.18;1.52;;;8.00;99.90;;;;;;12519941;28;20085;-81
2023/04/12 02:39:49;;;;;;;7.45;1.30;;;7.90;99.90;;;;;;12512310;28;20045;-81
2023/04/12 02:45:51;;;;;;;5.95;1.30;;;7.90;99.90;;;;;;12521795;28;20041;-82
2023/04/12 02:51:54;;;;;;;5.03;1.58;;;7.90;99.90;;;;;;12528745;28;20022;-81
2023/04/12 02:57:56;;;;;;;6.03;1.40;;;7.80;99.90;;;;;;12528750;28;20111;-80
2023/04/12 03:04:00;;;;;;;6.35;1.40;;;7.70;99.90;;;;;;12535946;28;20460;-83
2023/04/12 03:10:06;;;;;;;;;;;7.60;99.90;;;;;;12516346;28;20108;-81
2023/04/12 03:16:22;;;;;;;;;;;7.60;99.90;;;;;;12523408;28;19925;-81
2023/04/12 03:22:26;;;;;;;6.07;1.30;;;7.50;99.90;;;;;;12536378;28;19965;-82
2023/04/12 03:28:28;;;;;;;5.63;1.50;;;7.50;99.90;;;;;;12526232;28;20057;-81
2023/04/12 03:34:34;;;;;;;6.40;1.40;;;7.50;99.90;;;;;;12528198;28;20045;-81
2023/04/12 03:40:35;;;;;;;5.38;1.38;;;7.40;99.90;;;;;;12529094;28;20049;-82
2023/04/12 03:46:37;;;;;;;6.93;1.55;;;7.40;99.90;;;;;;12530796;28;20053;-81
2023/04/12 03:52:42;;;;;;;;;;;7.30;99.90;;;;;;12523004;28;20061;-83
2023/04/12 03:58:43;;;;;;;8.07;1.55;;;7.30;99.90;;;;;;12532489;28;19905;-82
2023/04/12 04:04:46;;;;;;;7.80;1.33;;;7.20;99.90;;;;;;12552989;28;20054;-81
2023/04/12 04:10:48;;;;;;;6.68;1.30;;;7.10;99.90;;;;;;12515046;28;20046;-81
2023/04/12 04:16:50;;;;;;;8.18;1.60;;;7.20;99.90;;;;;;12533694;28;20049;-82
2023/04/12 04:22:52;;;;;;;4.75;1.33;;;7.20;99.90;;;;;;12508261;28;20486;-81
2023/04/12 04:28:54;;;;;;;8.38;1.35;;;7.20;99.90;;;;;;12536387;28;20057;-81
2023/04/12 04:34:59;;;;;;;6.53;1.38;;;7.20;99.90;;;;;;12506601;28;20123;-82
2023/04/12 04:41:02;;;;;;;5.85;1.48;;;7.10;99.90;;;;;;12515419;28;20112;-82
2023/04/12 04:47:05;;;;;;;4.78;1.23;;;7.10;99.90;;;;;;12529050;28;20030;-81
2023/04/12 04:53:07;;;;;;;6.38;1.60;;;7.30;99.90;;;;;;12537901;28;20042;-81
2023/04/12 04:59:10;;;;;;;6.85;1.25;;;7.20;99.90;;;;;;12537185;28;20052;-83
2023/04/12 05:05:12;;;;;;;6.72;1.30;;;7.20;99.90;;;;;;12521435;28;20151;-82
2023/04/12 05:11:14;;;;;;;4.90;1.38;;;7.20;99.90;;;;;;12523874;28;20050;-82
2023/04/12 05:17:16;;;;;;;9.07;1.70;;;7.40;99.90;;;;;;12528848;28;20095;-82
2023/04/12 05:23:18;;;;;;;9.18;1.70;;;7.70;99.90;;;;;;12526382;28;20053;-82
2023/04/12 05:29:19;;;;;;;6.15;1.75;;;7.90;99.90;;;;;;12529257;28;20506;-83
2023/04/12 05:35:22;;;;;;;9.50;1.70;;;7.70;99.90;;;;;;12524592;28;20042;-82
2023/04/12 05:41:25;;;;;;;5.55;1.92;;;7.70;99.90;;;;;;12529862;28;20045;-82
2023/04/12 05:47:26;;;;;;;6.55;1.52;;;7.70;99.90;;;;;;12553231;28;20033;-82
2023/04/12 05:53:31;;;;;;;6.15;1.73;;;7.80;99.90;;;;;;12521876;28;20045;-83
2023/04/12 05:59:37;;;;;;;5.63;1.40;;;7.70;99.90;;;;;;12517139;28;20056;-84
2023/04/12 06:05:39;;;;;;;6.00;1.60;;;7.80;99.90;;;;;;12533133;28;20048;-81
2023/04/12 06:11:41;;;;;;;3.95;1.40;;;7.80;99.90;;;;;;12503456;28;20054;-82
2023/04/12 06:17:44;;;;;;;6.28;1.52;;;8.00;99.90;;;;;;12534523;28;20034;-84
2023/04/12 06:23:46;;;;;;;5.97;1.50;;;8.00;99.90;;;;;;12527761;28;20344;-82
2023/04/12 06:29:50;;;;;;;5.05;1.60;;;8.00;99.90;;;;;;12507158;28;20063;-81
2023/04/12 06:35:55;;;;;;;4.32;1.33;;;8.10;99.90;;;;;;12515007;28;20057;-82
2023/04/12 06:41:58;;;;;;;5.13;1.63;;;8.10;99.90;;;;;;12514744;28;20081;-82
2023/04/12 06:48:00;;;;;;;4.82;1.23;;;8.20;99.90;;;;;;12494615;28;20080;-81
2023/04/12 06:54:04;;;;;;;5.07;1.73;;;8.40;99.90;;;;;;12510661;28;20069;-82
2023/04/12 07:00:11;;;;;;;6.28;1.40;;;8.60;99.90;;;;;;12508881;28;20049;-82
2023/04/12 07:06:13;;;;;;;5.40;1.70;;;8.60;99.90;;;;;;12515805;28;20049;-83
2023/04/12 07:12:27;;;;;;;4.65;1.40;;;8.60;99.90;;;;;;12516358;28;20172;-82
2023/04/12 07:18:29;;;;;;;4.55;1.70;;;8.60;99.90;;;;;;12489588;28;20049;-82
2023/04/12 07:24:32;;;;;;;2.55;1.30;;;8.50;99.90;;;;;;12504997;28;20816;-81
2023/04/12 07:30:34;;;;;;;4.30;1.73;;;8.50;99.90;;;;;;12505261;28;20502;-83
2023/04/12 07:36:37;;;;;;;4.00;1.50;;;8.30;99.90;;;;;;12515845;28;20118;-82
2023/04/12 07:42:41;;;;;;;7.10;1.52;;;8.30;99.90;;;;;;12504604;28;20128;-84
2023/04/12 07:48:43;;;;;;;3.27;1.43;;;8.30;99.90;;;;;;12496881;28;20089;-82
2023/04/12 07:54:45;;;;;;;3.85;1.88;;;8.20;99.90;;;;;;12517698;28;20041;-83
2023/04/12 08:00:47;;;;;;;4.82;1.70;;;8.10;99.90;;;;;;12510772;28;20107;-82
2023/04/12 08:06:51;;;;;;;3.80;1.67;;;8.20;99.90;;;;;;12509524;28;20066;-82
2023/04/12 08:12:53;;;;;;;2.85;1.60;;;8.20;99.90;;;;;;12524082;28;20042;-82
2023/04/12 08:18:55;;;;;;;3.83;1.70;;;8.30;99.90;;;;;;12533424;28;20046;-83
2023/04/12 08:25:00;;;;;;;3.28;1.95;;;8.40;99.90;;;;;;12534651;28;20042;-82
2023/04/12 08:31:04;;;;;;;4.03;1.88;;;8.40;99.90;;;;;;12529170;28;20053;-82
2023/04/12 08:37:06;;;;;;;4.30;1.90;;;8.20;99.90;;;;;;12526831;28;20048;-83
2023/04/12 08:43:10;;;;;;;6.63;2.15;;;8.20;99.90;;;;;;12527520;28;20038;-82
2023/04/12 08:49:15;;;;;;;3.78;1.63;;;8.30;99.90;;;;;;12492212;28;20049;-82
2023/04/12 08:55:17;;;;;;;3.42;1.73;;;8.20;99.90;;;;;;12517382;28;20049;-83
2023/04/12 09:01:20;;;;;;;4.32;1.40;;;8.10;99.90;;;;;;12510321;28;20049;-84
2023/04/12 09:07:26;;;;;;;5.55;1.90;;;8.10;99.90;;;;;;12516807;28;20061;-83
2023/04/12 09:13:35;;;;;;;1.98;1.00;;;8.20;99.90;;;;;;12496712;28;20041;-83
2023/04/12 09:19:37;;;;;;;2.85;1.35;;;8.30;99.90;;;;;;12484344;28;20073;-84
2023/04/12 09:25:44;;;;;;;3.45;1.13;;;8.40;99.90;;;;;;12528756;28;20053;-84
2023/04/12 09:31:55;;;;;;;3.55;1.45;;;8.40;99.90;;;;;;12503209;28;20049;-82
2023/04/12 09:38:05;;;;;;;5.03;1.40;;;8.50;99.90;;;;;;12511111;28;20080;-82
2023/04/12 09:44:07;;;;;;;2.85;1.25;;;8.70;99.90;;;;;;12528044;28;20131;-82
2023/04/12 09:50:32;;;;;;;3.00;1.20;;;8.90;99.90;;;;;;12485536;28;20052;-84
2023/04/12 09:56:36;;;;;;;2.80;1.10;;;8.90;99.90;;;;;;12497523;28;20054;-82
2023/04/12 10:02:40;;;;;;;3.28;1.27;;;9.00;99.90;;;;;;12523408;28;20095;-82
2023/04/12 10:08:48;;;;;;;3.47;1.30;;;9.20;99.90;;;;;;12534318;28;20050;-82
2023/04/12 10:14:51;;;;;;;2.60;1.20;;;9.40;99.90;;;;;;12505705;28;20049;-81
2023/04/12 10:20:54;;;;;;;2.80;1.17;;;9.50;99.90;;;;;;12511443;28;20099;-83
2023/04/12 10:27:01;;;;;;;4.90;1.10;;;9.80;99.90;;;;;;12513218;28;20053;-82
2023/04/12 10:33:08;;;;;;;1.42;0.85;;;10.00;99.90;;;;;;12486212;28;20069;-82
2023/04/12 10:39:11;;;;;;;2.20;0.90;;;10.30;99.90;;;;;;12514952;28;20045;-82
2023/04/12 10:45:22;;;;;;;3.75;0.85;;;10.60;99.90;;;;;;12508617;28;20038;-83
2023/04/12 10:51:25;;;;;;;2.83;0.85;;;10.70;99.90;;;;;;12515242;28;20042;-83
2023/04/12 10:57:42;;;;;;;1.73;0.83;;;10.50;99.90;;;;;;12488169;28;20053;-83
2023/04/12 11:04:04;;;;;;;0.82;0.50;;;10.40;99.90;;;;;;12496802;28;20049;-82
2023/04/12 11:10:15;;;;;;;1.35;0.60;;;10.50;99.90;;;;;;12490733;28;20300;-83
2023/04/12 11:16:17;;;;;;;2.15;1.15;;;10.70;99.90;;;;;;12451631;28;20076;-83
2023/04/12 11:22:21;;;;;;;1.70;0.73;;;10.70;99.90;;;;;;12500848;28;20057;-82
2023/04/12 11:28:24;;;;;;;1.30;0.70;;;10.70;99.90;;;;;;12495149;28;20053;-82
2023/04/12 11:34:33;;;;;;;2.45;0.90;;;10.70;99.90;;;;;;12492884;28;20068;-82
2023/04/12 11:40:41;;;;;;;1.17;0.70;;;10.70;99.90;;;;;;12492307;28;20152;-81
2023/04/12 11:46:43;;;;;;;1.67;0.88;;;10.60;99.90;;;;;;12506644;28;20295;-82
2023/04/12 11:52:45;;;;;;;1.73;0.82;;;10.60;99.90;;;;;;12486803;28;20492;-82
2023/04/12 11:58:48;;;;;;;1.60;0.82;;;10.60;99.90;;;;;;12505863;28;20042;-82
2023/04/12 12:04:51;;;;;;;1.90;0.90;;;10.80;99.90;;;;;;12506596;28;20072;-82
2023/04/12 12:10:54;;;;;;;1.30;0.60;;;10.80;99.90;;;;;;12506621;28;20330;-83
2023/04/12 12:17:10;;;;;;;1.05;0.70;;;10.70;99.90;;;;;;12501970;28;20490;-81
2023/04/12 12:23:25;;;;;;;;;;;10.70;99.90;;;;;;12511426;28;20048;-83
2023/04/12 12:29:34;;;;;;;1.50;0.93;;;10.90;99.90;;;;;;12505411;28;19925;-82
2023/04/12 12:35:36;;;;;;;1.30;0.90;;;10.80;99.90;;;;;;12516090;28;20041;-81
2023/04/12 12:41:39;;;;;;;2.90;0.90;;;10.80;99.90;;;;;;12522192;28;20117;-82
2023/04/12 12:47:54;;;;;;;1.00;0.80;;;10.70;99.90;;;;;;12515267;28;20053;-82
2023/04/12 12:53:56;;;;;;;1.50;0.90;;;10.30;99.90;;;;;;12507119;28;20117;-82
2023/04/12 12:59:59;;;;;;;1.65;0.88;;;10.60;99.90;;;;;;12521085;28;20079;-82
2023/04/12 13:06:02;;;;;;;1.30;0.70;;;10.90;99.90;;;;;;12547541;28;20099;-82
2023/04/12 13:12:04;;;;;;;2.88;1.10;;;10.70;99.90;;;;;;12498406;28;20045;-82
2023/04/12 13:18:06;;;;;;;1.27;0.88;;;10.50;99.90;;;;;;12535728;28;20045;-82
2023/04/12 13:24:08;;;;;;;1.75;0.90;;;10.40;99.90;;;;;;12498525;28;20068;-83
2023/04/12 13:30:10;;;;;;;1.60;0.90;;;10.20;99.90;;;;;;12518312;28;20108;-82
2023/04/12 13:36:13;;;;;;;1.08;0.85;;;10.40;99.90;;;;;;12537780;28;20068;-81
2023/04/12 13:42:15;;;;;;;1.33;1.00;;;10.30;99.90;;;;;;12530332;28;20064;-81
2023/04/12 13:48:18;;;;;;;2.30;1.23;;;10.20;99.90;;;;;;12535242;28;20053;-82
2023/04/12 13:54:21;;;;;;;2.28;1.13;;;10.10;99.90;;;;;;12522237;28;20079;-82
2023/04/12 14:00:23;;;;;;;2.75;1.35;;;10.20;99.90;;;;;;12531059;28;20055;-82
2023/04/12 14:06:25;;;;;;;1.98;1.38;;;10.20;99.90;;;;;;12519446;28;20058;-83
2023/04/12 14:12:27;;;;;;;2.70;1.73;;;10.40;99.90;;;;;;12523323;28;20049;-82
2023/04/12 14:18:30;;;;;;;2.40;1.60;;;10.70;99.90;;;;;;12507861;28;20057;-82
2023/04/12 14:24:32;;;;;;;2.50;1.80;;;10.60;99.90;;;;;;12504950;28;20095;-82
2023/04/12 14:30:34;;;;;;;3.85;2.08;;;10.50;99.90;;;;;;12487126;28;20130;-82
2023/04/12 14:36:36;;;;;;;2.67;2.03;;;10.60;99.90;;;;;;12491234;28;20138;-82
2023/04/12 14:42:38;;;;;;;2.53;1.80;;;10.50;99.90;;;;;;12508195;28;20537;-82
2023/04/12 14:48:40;;;;;;;2.92;2.00;;;10.80;99.90;;;;;;12506179;28;20132;-82
2023/04/12 14:54:42;;;;;;;5.20;2.50;;;11.00;99.90;;;;;;12475954;28;20096;-82
2023/04/12 15:00:44;;;;;;;3.78;2.45;;;11.40;99.90;;;;;;12491350;28;20186;-82
2023/04/12 15:06:47;;;;;;;5.38;2.55;;;11.60;99.90;;;;;;12482425;28;20588;-83
2023/04/12 15:12:48;;;;;;;4.13;3.03;;;11.70;99.90;;;;;;12488622;28;20061;-83
2023/04/12 15:18:50;;;;;;;3.90;3.13;;;11.90;99.90;;;;;;12507382;28;20080;-82
2023/04/12 15:24:55;;;;;;;3.85;3.22;;;12.10;99.90;;;;;;12496059;28;20068;-83
2023/04/12 15:30:58;;;;;;;4.00;3.33;;;12.00;99.90;;;;;;12503723;28;20474;-82
2023/04/12 15:37:00;;;;;;;3.55;2.92;;;12.00;99.90;;;;;;12495655;28;20077;-83
2023/04/12 15:43:02;;;;;;;4.30;3.75;;;12.40;99.90;;;;;;12500172;28;20097;-82
2023/04/12 15:49:05;;;;;;;3.92;3.38;;;12.50;99.90;;;;;;12480910;28;20133;-82
2023/04/12 15:55:10;;;;;;;4.93;3.63;;;12.50;99.90;;;;;;12483338;28;20041;-82
2023/04/12 16:01:12;;;;;;;4.38;3.90;;;12.40;99.90;;;;;;12473427;28;20050;-82
2023/04/12 16:07:14;;;;;;;6.10;4.38;;;12.20;99.90;;;;;;12491149;28;20179;-81
2023/04/12 16:13:17;;;;;;;5.50;4.60;;;11.90;99.90;;;;;;12499809;28;20406;-82
2023/04/12 16:19:19;;;;;;;5.18;4.05;;;11.70;99.90;;;;;;12502264;28;20132;-82
2023/04/12 16:25:23;;;;;;;4.35;3.40;;;11.70;99.90;;;;;;12515704;28;20049;-81
2023/04/12 16:31:25;;;;;;;5.95;4.25;;;11.70;99.90;;;;;;12499938;28;20553;-81
2023/04/12 16:37:28;;;;;;;5.85;4.22;;;11.70;99.90;;;;;;12500049;28;20472;-81
2023/04/12 16:43:30;;;;;;;5.97;3.13;;;11.60;99.90;;;;;;12518161;28;20686;-83
2023/04/12 16:49:32;;;;;;;3.60;2.47;;;11.50;99.90;;;;;;12509946;28;20079;-81
2023/04/12 16:55:34;;;;;;;2.30;0.90;;;11.40;99.90;;;;;;12516791;28;20045;-80
2023/04/12 17:01:36;;;;;;;5.18;1.17;;;10.40;99.90;;;;;;12517287;28;20071;-81
2023/04/12 17:07:38;;;;;;;5.45;1.33;;;9.40;99.90;;;;;;12518369;28;20076;-81
2023/04/12 17:13:41;;;;;;;7.85;1.60;;;8.70;99.90;;;;;;12521335;28;20045;-83
2023/04/12 17:19:43;;;;;;;5.43;1.50;;;8.20;99.90;;;;;;12489970;28;20049;-82
2023/04/12 17:25:45;;;;;;;7.03;1.60;;;8.20;99.90;;;;;;12491286;28;20522;-81
2023/04/12 17:31:47;;;;;;;5.28;1.35;;;8.10;99.90;;;;;;12485022;28;20133;-82
2023/04/12 17:37:53;;;;;;;4.47;1.52;;;8.00;99.90;;;;;;12498421;28;20053;-81
2023/04/12 17:43:55;;;;;;;6.30;1.60;;;7.80;99.90;;;;;;12514558;28;20044;-81
2023/04/12 17:49:57;;;;;;;8.45;1.30;;;7.50;99.90;;;;;;12496876;28;20080;-81
2023/04/12 17:56:00;;;;;;;3.83;1.42;;;7.60;99.90;;;;;;12490580;28;20042;-81
2023/04/12 18:02:02;;;;;;;5.22;1.65;;;7.60;99.90;;;;;;12482286;28;20429;-81
2023/04/12 18:08:05;;;;;;;8.23;1.63;;;7.50;99.90;;;;;;12462295;28;20058;-81
2023/04/12 18:14:07;;;;;;;7.07;2.10;;;7.50;99.90;;;;;;12472536;28;20654;-81
2023/04/12 18:20:16;;;;;;;9.43;2.47;;;7.60;99.90;;;;;;12472746;28;20050;-81
2023/04/12 18:26:18;;;;;;;6.25;2.63;;;7.60;99.90;;;;;;12469122;28;20049;-81
2023/04/12 18:32:20;;;;;;;8.90;2.65;;;7.50;99.90;;;;;;12473837;28;20038;-81
2023/04/12 18:38:22;;;;;;;8.00;2.30;;;7.30;99.90;;;;;;12493290;28;20056;-81
2023/04/12 18:44:25;;;;;;;8.70;2.40;;;7.10;99.90;;;;;;12491560;28;20045;-81
2023/04/12 18:50:27;;;;;;;6.90;2.92;;;6.90;99.90;;;;;;12493317;28;20054;-82
2023/04/12 18:56:29;;;;;;;8.30;2.40;;;6.70;99.90;;;;;;12485952;28;20494;-81
2023/04/12 19:02:32;;;;;;;12.85;4.57;;;6.60;99.90;;;;;;12482886;28;20074;-82
2023/04/12 19:08:35;;;;;;;8.15;3.60;;;6.40;99.90;;;;;;12471868;28;20060;-82
2023/04/12 19:14:37;;;;;;;12.38;2.90;;;6.30;99.90;;;;;;12481222;28;20041;-82
2023/04/12 19:20:39;;;;;;;10.32;3.50;;;6.20;99.90;;;;;;12489603;28;20087;-82
2023/04/12 19:26:45;;;;;;;10.90;3.28;;;6.20;99.90;;;;;;12476162;28;20054;-82
2023/04/12 19:32:48;;;;;;;10.48;3.65;;;6.20;99.90;;;;;;12473351;28;20575;-82
2023/04/12 19:38:50;;;;;;;12.20;4.25;;;6.10;99.90;;;;;;12494487;28;20054;-82
2023/04/12 19:44:52;;;;;;;10.25;3.40;;;6.10;99.90;;;;;;12525056;28;20065;-83
2023/04/12 19:50:55;;;;;;;10.13;3.75;;;6.20;99.90;;;;;;12519613;28;20095;-82
2023/04/12 19:56:57;;;;;;;11.82;3.85;;;6.20;99.90;;;;;;12510901;28;20072;-81
2023/04/12 20:02:59;;;;;;;11.75;4.07;;;6.20;99.90;;;;;;12488337;28;20057;-82
2023/04/12 20:09:01;;;;;;;12.88;3.70;;;6.20;99.90;;;;;;12464182;28;20056;-82
2023/04/12 20:15:07;;;;;;;16.10;3.65;;;6.20;99.90;;;;;;12481584;28;20042;-81
2023/04/12 20:21:09;;;;;;;11.25;3.88;;;6.20;99.90;;;;;;12495160;28;20049;-81
2023/04/12 20:27:15;;;;;;;11.95;3.75;;;6.20;99.90;;;;;;12482960;28;20718;-81
2023/04/12 20:33:18;;;;;;;10.85;3.70;;;6.30;99.90;;;;;;12502647;28;20056;-82
2023/04/12 20:39:23;;;;;;;12.38;4.45;;;6.40;99.90;;;;;;12483738;28;20054;-82
2023/04/12 20:45:25;;;;;;;;;;;6.30;99.90;;;;;;12493390;28;20498;-81
2023/04/12 20:51:28;;;;;;;13.68;5.90;;;6.40;99.90;;;;;;12483219;28;19925;-81
2023/04/12 20:57:30;;;;;;;13.13;4.30;;;6.40;99.90;;;;;;12481565;28;20459;-81
2023/04/12 21:03:34;;;;;;;10.80;4.00;;;6.40;99.90;;;;;;12502890;28;20799;-81
2023/04/12 21:09:37;;;;;;;16.08;4.78;;;6.40;99.90;;;;;;12489906;28;20073;-82
2023/04/12 21:15:40;;;;;;;11.65;4.40;;;6.40;99.90;;;;;;12499410;28;20410;-82
2023/04/12 21:21:42;;;;;;;13.80;5.15;;;6.30;99.90;;;;;;12483161;28;20128;-81
2023/04/12 21:27:46;;;;;;;12.40;5.47;;;6.20;99.90;;;;;;12478144;28;20498;-83
2023/04/12 21:33:49;;;;;;;8.90;4.13;;;6.10;99.90;;;;;;12479237;28;20056;-82
2023/04/12 21:39:51;;;;;;;8.50;3.85;;;6.00;99.90;;;;;;12490019;28;20073;-81
2023/04/12 21:45:53;;;;;;;13.63;4.40;;;6.00;99.90;;;;;;12481041;28;20053;-82
2023/04/12 21:51:55;;;;;;;7.82;3.80;;;5.90;99.90;;;;;;12488805;28;20053;-82
2023/04/12 21:57:57;;;;;;;11.98;3.70;;;5.90;99.90;;;;;;12488106;28;20064;-82
2023/04/12 22:03:59;;;;;;;9.02;3.85;;;5.90;99.90;;;;;;12475450;28;20042;-82
2023/04/12 22:10:01;;;;;;;6.43;3.63;;;5.70;99.90;;;;;;12502479;28;20055;-81
2023/04/12 22:16:04;;;;;;;10.07;3.85;;;5.60;99.90;;;;;;12476788;28;20060;-81
2023/04/12 22:22:08;;;;;;;8.95;4.28;;;5.50;99.90;;;;;;12501206;28;20046;-82
2023/04/12 22:28:11;;;;;;;9.15;4.90;;;5.60;99.90;;;;;;12497514;28;20045;-81
2023/04/12 22:34:13;;;;;;;8.70;4.60;;;5.50;99.90;;;;;;12488723;28;20391;-82
2023/04/12 22:40:14;;;;;;;10.27;6.18;;;5.50;99.90;;;;;;12490685;28;20045;-82
2023/04/12 22:46:17;;;;;;;14.73;7.63;;;5.50;99.90;;;;;;12499627;28;20076;-82
2023/04/12 22:52:23;;;;;;;14.73;8.18;;;5.50;99.90;;;;;;12505249;28;20080;-82
2023/04/12 22:58:25;;;;;;;14.15;8.75;;;5.40;99.90;;;;;;12510441;28;20072;-82
2023/04/12 23:04:27;;;;;;;15.32;8.68;;;5.50;99.90;;;;;;12492288;28;20066;-82
2023/04/12 23:10:32;;;;;;;14.60;8.70;;;5.40;99.90;;;;;;12489524;28;20069;-82
2023/04/12 23:16:41;;;;;;;15.35;8.75;;;5.40;99.90;;;;;;12502022;28;20042;-81
2023/04/12 23:22:56;;;;;;;18.17;8.85;;;5.50;99.90;;;;;;12487663;28;20046;-82
2023/04/12 23:29:02;;;;;;;14.82;7.57;;;5.50;99.90;;;;;;12513159;28;20081;-82
2023/04/12 23:35:04;;;;;;;12.80;7.05;;;5.60;99.90;;;;;;12493802;28;20409;-82
2023/04/12 23:41:08;;;;;;;10.88;6.28;;;5.50;99.90;;;;;;12482948;28;20048;-81
2023/04/12 23:47:10;;;;;;;12.52;5.75;;;5.60;99.90;;;;;;12503624;28;20045;-81
2023/04/12 23:53:13;;;;;;;8.18;5.07;;;5.60;99.90;;;;;;12482656;28;20111;-82
2023/04/12 23:59:15;;;;;;;11.52;5.20;;;5.60;99.90;;;;;;12479889;28;20132;-82
